GA512 UGTB-LFPG
Flight info
| Callsign | GA512 |
|---|---|
| Flight time | N/A |
| Altitude | 34000 |
| Route | UGTB/31L ZAGOT1 ZAGOT DCT BARUS DCT ROLIN UN644 INB UL746 ODERO DCT LUGEB DCT BUDOP/N0446F360 DCT BEGLA DCT LAMSI DCT PETIX DCT BOMBI DCT RUDUS DCT NOSPA DCT BITBU DCT DIK UN857 TOLVU/N0440F370 DCT RAPOR DCT VEDUS VEDUS9E LFPG/09L |
| Aircraft | A320/L-V/N |
Departure
| Time | 2026-04-23 18:30 |
|---|---|
| Airport | Tbilisi International Airport (UGTB) |
Arrival
| Time | N/A |
|---|---|
| Airport | Charles de Gaulle International Airport (LFPG) |
| Time | Latitude | Longitude | Altitude | Speed | Heading |
|---|---|---|---|---|---|
| 2026-04-23 17:26 | 41.66820 | 44.96434 | 1546 ft | 0 kts | 44° |
| 2026-04-23 17:41 | 41.66819 | 44.96434 | 1519 ft | 0 kts | 44° |
| 2026-04-23 17:56 | 41.66819 | 44.96433 | 1546 ft | 0 kts | 45° |
| 2026-04-23 18:09 | 41.66818 | 44.96433 | 1546 ft | 0 kts | 45° |
| 2026-04-23 18:17 | 41.66818 | 44.96432 | 1546 ft | 0 kts | 45° |
| 2026-04-23 18:20 | 41.66816 | 44.96429 | 1546 ft | 3 kts | 45° |
| 2026-04-23 18:20 | 41.66803 | 44.96412 | 1537 ft | 3 kts | 45° |
| 2026-04-23 18:20 | 41.66793 | 44.96391 | 1538 ft | 3 kts | 102° |
| 2026-04-23 18:20 | 41.66799 | 44.96376 | 1538 ft | 0 kts | 158° |
| 2026-04-23 18:24 | 41.66794 | 44.96379 | 1539 ft | 3 kts | 157° |
| 2026-04-23 18:24 | 41.66758 | 44.96394 | 1541 ft | 8 kts | 162° |
| 2026-04-23 18:24 | 41.66695 | 44.96423 | 1536 ft | 10 kts | 179° |
| 2026-04-23 18:25 | 41.66566 | 44.96390 | 1536 ft | 9 kts | 193° |
| 2026-04-23 18:25 | 41.66510 | 44.96372 | 1541 ft | 8 kts | 194° |
| 2026-04-23 18:25 | 41.66456 | 44.96353 | 1539 ft | 8 kts | 194° |
| 2026-04-23 18:25 | 41.66406 | 44.96337 | 1536 ft | 7 kts | 194° |
| 2026-04-23 18:26 | 41.66363 | 44.96323 | 1535 ft | 6 kts | 194° |
| 2026-04-23 18:26 | 41.66325 | 44.96311 | 1536 ft | 6 kts | 193° |
| 2026-04-23 18:26 | 41.66259 | 44.96292 | 1536 ft | 14 kts | 192° |
| 2026-04-23 18:26 | 41.66169 | 44.96289 | 1534 ft | 7 kts | 123° |
| 2026-04-23 18:27 | 41.66127 | 44.96357 | 1531 ft | 13 kts | 134° |
| 2026-04-23 18:27 | 41.66043 | 44.96467 | 1533 ft | 20 kts | 137° |
| 2026-04-23 18:27 | 41.65990 | 44.96536 | 1525 ft | 0 kts | 137° |
| 2026-04-23 18:27 | 41.65989 | 44.96537 | 1525 ft | 0 kts | 137° |
| 2026-04-23 18:28 | 41.65981 | 44.96548 | 1525 ft | 7 kts | 137° |
| 2026-04-23 18:29 | 41.65943 | 44.96589 | 1532 ft | 7 kts | 146° |
| 2026-04-23 18:29 | 41.65856 | 44.96559 | 1527 ft | 23 kts | 242° |
| 2026-04-23 18:29 | 41.65904 | 44.96386 | 1529 ft | 26 kts | 316° |
| 2026-04-23 18:29 | 41.66189 | 44.96026 | 1531 ft | 86 kts | 317° |
| 2026-04-23 18:30 | 41.66784 | 44.95277 | 1559 ft | 145 kts | 316° |
| 2026-04-23 18:30 | 41.67519 | 44.94336 | 2059 ft | 144 kts | 316° |
| 2026-04-23 18:30 | 41.68291 | 44.93432 | 2463 ft | 155 kts | 323° |
| 2026-04-23 18:30 | 41.69135 | 44.92459 | 2930 ft | 164 kts | 319° |
| 2026-04-23 18:31 | 41.70003 | 44.91426 | 3509 ft | 169 kts | 320° |
| 2026-04-23 18:31 | 41.70916 | 44.90371 | 4018 ft | 178 kts | 320° |
| 2026-04-23 18:31 | 41.71853 | 44.89250 | 4465 ft | 187 kts | 315° |
| 2026-04-23 18:31 | 41.72797 | 44.88012 | 4941 ft | 193 kts | 314° |
| 2026-04-23 18:32 | 41.73786 | 44.86723 | 5404 ft | 201 kts | 313° |
| 2026-04-23 18:32 | 41.74813 | 44.85408 | 5889 ft | 207 kts | 314° |
| 2026-04-23 18:32 | 41.75869 | 44.84076 | 6350 ft | 215 kts | 313° |
| 2026-04-23 18:32 | 41.76998 | 44.82658 | 6750 ft | 230 kts | 312° |
| 2026-04-23 18:33 | 41.78202 | 44.81139 | 7224 ft | 244 kts | 309° |
| 2026-04-23 18:33 | 41.79027 | 44.79186 | 7685 ft | 249 kts | 275° |
| 2026-04-23 18:33 | 41.78972 | 44.76842 | 8170 ft | 259 kts | 258° |
| 2026-04-23 18:33 | 41.78697 | 44.74365 | 8660 ft | 278 kts | 260° |
| 2026-04-23 18:34 | 41.78498 | 44.71696 | 9147 ft | 297 kts | 263° |
| 2026-04-23 18:34 | 41.78388 | 44.68835 | 9647 ft | 316 kts | 265° |
| 2026-04-23 18:34 | 41.78339 | 44.65794 | 10118 ft | 334 kts | 266° |
| 2026-04-23 18:34 | 41.78326 | 44.62637 | 10572 ft | 352 kts | 267° |
| 2026-04-23 18:35 | 41.78331 | 44.59268 | 11047 ft | 368 kts | 267° |
| 2026-04-23 18:35 | 41.78344 | 44.55801 | 11805 ft | 374 kts | 268° |
| 2026-04-23 18:35 | 41.78361 | 44.52293 | 12706 ft | 376 kts | 267° |
| 2026-04-23 18:35 | 41.78379 | 44.48767 | 13537 ft | 379 kts | 268° |
| 2026-04-23 18:36 | 41.78395 | 44.45269 | 14300 ft | 382 kts | 267° |
| 2026-04-23 18:36 | 41.78411 | 44.41670 | 14867 ft | 389 kts | 268° |
| 2026-04-23 18:36 | 41.78427 | 44.38022 | 15597 ft | 390 kts | 268° |
| 2026-04-23 18:36 | 41.78445 | 44.34367 | 16261 ft | 394 kts | 268° |
| 2026-04-23 18:37 | 41.78457 | 44.30720 | 16811 ft | 398 kts | 268° |
| 2026-04-23 18:37 | 41.78469 | 44.26978 | 17427 ft | 402 kts | 268° |
| 2026-04-23 18:37 | 41.78480 | 44.23223 | 18069 ft | 404 kts | 268° |
| 2026-04-23 18:37 | 41.78490 | 44.19428 | 18571 ft | 407 kts | 268° |
| 2026-04-23 18:38 | 41.78496 | 44.15646 | 19312 ft | 403 kts | 267° |
| 2026-04-23 18:38 | 41.78572 | 44.11875 | 20023 ft | 403 kts | 271° |
| 2026-04-23 18:38 | 41.78842 | 44.08149 | 20495 ft | 408 kts | 274° |
| 2026-04-23 18:38 | 41.79224 | 44.04348 | 20956 ft | 412 kts | 275° |
| 2026-04-23 18:39 | 41.79646 | 44.00526 | 21473 ft | 414 kts | 275° |
| 2026-04-23 18:39 | 41.80064 | 43.96751 | 21991 ft | 415 kts | 275° |
| 2026-04-23 18:39 | 41.80475 | 43.92906 | 22530 ft | 415 kts | 275° |
| 2026-04-23 18:39 | 41.80867 | 43.89068 | 23072 ft | 415 kts | 275° |
| 2026-04-23 18:40 | 41.81248 | 43.85224 | 23610 ft | 414 kts | 274° |
| 2026-04-23 18:40 | 41.81613 | 43.81437 | 24062 ft | 413 kts | 274° |
| 2026-04-23 18:40 | 41.81975 | 43.77615 | 24582 ft | 412 kts | 274° |
| 2026-04-23 18:40 | 41.82332 | 43.73799 | 25075 ft | 411 kts | 274° |
| 2026-04-23 18:41 | 41.82686 | 43.70001 | 25561 ft | 409 kts | 274° |
| 2026-04-23 18:41 | 41.83035 | 43.66231 | 26048 ft | 406 kts | 274° |
| 2026-04-23 18:41 | 41.83380 | 43.62517 | 26555 ft | 404 kts | 274° |
| 2026-04-23 18:41 | 41.83724 | 43.58781 | 27088 ft | 401 kts | 274° |
| 2026-04-23 18:42 | 41.84066 | 43.55081 | 27618 ft | 398 kts | 274° |
| 2026-04-23 18:42 | 41.84406 | 43.51407 | 28146 ft | 394 kts | 274° |
| 2026-04-23 18:42 | 41.84738 | 43.47828 | 28686 ft | 390 kts | 273° |
| 2026-04-23 18:42 | 41.85068 | 43.44241 | 29256 ft | 385 kts | 273° |
| 2026-04-23 18:43 | 41.85393 | 43.40687 | 29823 ft | 380 kts | 274° |
| 2026-04-23 18:43 | 41.85713 | 43.37182 | 30360 ft | 375 kts | 273° |
| 2026-04-23 18:43 | 41.86028 | 43.33744 | 30847 ft | 368 kts | 272° |
| 2026-04-23 18:43 | 41.86337 | 43.30352 | 31342 ft | 362 kts | 272° |
| 2026-04-23 18:44 | 41.86633 | 43.27073 | 31859 ft | 354 kts | 272° |
| 2026-04-23 18:44 | 41.86926 | 43.23815 | 32368 ft | 346 kts | 272° |
| 2026-04-23 18:44 | 41.87212 | 43.20640 | 32890 ft | 338 kts | 271° |
| 2026-04-23 18:44 | 41.87487 | 43.17582 | 33391 ft | 328 kts | 271° |
| 2026-04-23 18:45 | 41.87755 | 43.14583 | 33908 ft | 319 kts | 271° |
| 2026-04-23 18:45 | 41.88015 | 43.11632 | 34116 ft | 317 kts | 271° |
| 2026-04-23 18:45 | 41.88270 | 43.08669 | 34144 ft | 321 kts | 271° |
| 2026-04-23 18:46 | 41.88787 | 43.02634 | 34136 ft | 328 kts | 271° |
| 2026-04-23 18:46 | 41.89317 | 42.96521 | 34170 ft | 336 kts | 271° |
| 2026-04-23 18:47 | 41.89865 | 42.90207 | 34156 ft | 343 kts | 271° |
| 2026-04-23 18:47 | 41.90335 | 42.83778 | 34146 ft | 346 kts | 267° |
| 2026-04-23 18:48 | 41.90242 | 42.77303 | 34155 ft | 351 kts | 263° |
| 2026-04-23 18:48 | 41.89927 | 42.70661 | 34155 ft | 360 kts | 263° |
| 2026-04-23 18:49 | 41.89605 | 42.63913 | 34166 ft | 368 kts | 263° |
| 2026-04-23 18:49 | 41.89305 | 42.56933 | 34163 ft | 378 kts | 263° |
| 2026-04-23 18:50 | 41.89062 | 42.51022 | 34166 ft | 384 kts | 263° |
| 2026-04-23 18:50 | 41.88715 | 42.42584 | 34283 ft | 390 kts | 264° |
| 2026-04-23 18:50 | 41.88572 | 42.38990 | 34861 ft | 380 kts | 264° |
| 2026-04-23 18:51 | 41.88439 | 42.35488 | 35364 ft | 370 kts | 264° |
| 2026-04-23 18:51 | 41.88314 | 42.32075 | 35767 ft | 363 kts | 264° |
| 2026-04-23 18:51 | 41.88194 | 42.28754 | 36083 ft | 357 kts | 264° |
| 2026-04-23 18:52 | 41.87951 | 42.22069 | 36100 ft | 361 kts | 264° |
| 2026-04-23 18:52 | 41.87704 | 42.15309 | 36090 ft | 366 kts | 264° |
| 2026-04-23 18:53 | 41.87451 | 42.08424 | 36109 ft | 370 kts | 264° |
| 2026-04-23 18:53 | 41.87197 | 42.01514 | 36160 ft | 373 kts | 264° |
| 2026-04-23 18:54 | 41.86938 | 41.94513 | 36285 ft | 376 kts | 265° |
| 2026-04-23 18:54 | 41.86680 | 41.87535 | 36376 ft | 378 kts | 265° |
| 2026-04-23 18:55 | 41.86414 | 41.80386 | 35966 ft | 393 kts | 265° |
| 2026-04-23 18:55 | 41.86266 | 41.76703 | 35661 ft | 402 kts | 264° |
| 2026-04-23 18:55 | 41.86076 | 41.72987 | 36059 ft | 394 kts | 263° |
| 2026-04-23 18:56 | 41.85694 | 41.66817 | 35801 ft | 404 kts | 263° |
| 2026-04-23 18:56 | 41.85325 | 41.61867 | 35520 ft | 399 kts | 262° |
| 2026-04-23 18:56 | 41.85025 | 41.58214 | 35309 ft | 389 kts | 262° |
| 2026-04-23 18:56 | 41.84710 | 41.54647 | 35130 ft | 379 kts | 261° |
| 2026-04-23 18:57 | 41.84379 | 41.51176 | 34938 ft | 369 kts | 261° |
| 2026-04-23 18:57 | 41.84040 | 41.47846 | 34769 ft | 360 kts | 259° |
| 2026-04-23 18:57 | 41.83771 | 41.44533 | 34419 ft | 356 kts | 263° |
| 2026-04-23 18:57 | 41.83641 | 41.41230 | 34014 ft | 353 kts | 264° |
| 2026-04-23 18:58 | 41.83554 | 41.37939 | 33543 ft | 350 kts | 264° |
| 2026-04-23 18:58 | 41.83475 | 41.34692 | 33197 ft | 343 kts | 264° |
| 2026-04-23 18:58 | 41.83404 | 41.31559 | 33023 ft | 338 kts | 264° |
| 2026-04-23 18:59 | 41.83262 | 41.25240 | 33555 ft | 332 kts | 264° |
| 2026-04-23 18:59 | 41.83198 | 41.22174 | 34023 ft | 324 kts | 264° |
| 2026-04-23 18:59 | 41.83134 | 41.19156 | 34182 ft | 324 kts | 264° |
| 2026-04-23 19:00 | 41.82995 | 41.13106 | 34202 ft | 329 kts | 264° |
| 2026-04-23 19:00 | 41.82848 | 41.06901 | 34203 ft | 336 kts | 264° |
| 2026-04-23 19:01 | 41.82690 | 41.00577 | 34231 ft | 343 kts | 264° |
| 2026-04-23 19:01 | 41.82561 | 40.94095 | 34201 ft | 351 kts | 264° |
| 2026-04-23 19:02 | 41.82456 | 40.88643 | 34203 ft | 357 kts | 264° |
| 2026-04-23 19:02 | 41.82296 | 40.80759 | 34209 ft | 364 kts | 264° |
| 2026-04-23 19:03 | 41.82156 | 40.74022 | 34185 ft | 362 kts | 264° |
| 2026-04-23 19:03 | 41.82007 | 40.67250 | 34204 ft | 363 kts | 264° |
| 2026-04-23 19:04 | 41.81854 | 40.60473 | 34207 ft | 363 kts | 264° |
| 2026-04-23 19:04 | 41.81703 | 40.53742 | 34207 ft | 363 kts | 264° |
| 2026-04-23 19:05 | 41.81551 | 40.47008 | 34208 ft | 363 kts | 264° |
| 2026-04-23 19:05 | 41.81403 | 40.40444 | 34206 ft | 363 kts | 264° |
| 2026-04-23 19:06 | 41.81250 | 40.33678 | 34203 ft | 363 kts | 264° |
| 2026-04-23 19:06 | 41.81097 | 40.26911 | 34201 ft | 363 kts | 264° |
| 2026-04-23 19:07 | 41.80987 | 40.20177 | 34200 ft | 365 kts | 268° |
| 2026-04-23 19:07 | 41.81808 | 40.13388 | 34202 ft | 372 kts | 276° |
| 2026-04-23 19:08 | 41.83020 | 40.06618 | 34198 ft | 373 kts | 277° |
| 2026-04-23 19:08 | 41.84255 | 39.99879 | 34202 ft | 374 kts | 277° |
| 2026-04-23 19:09 | 41.85495 | 39.93121 | 34204 ft | 374 kts | 277° |
| 2026-04-23 19:09 | 41.86741 | 39.86329 | 34195 ft | 374 kts | 277° |
| 2026-04-23 19:10 | 41.87393 | 39.79545 | 34207 ft | 365 kts | 266° |
| 2026-04-23 19:10 | 41.87495 | 39.72729 | 34213 ft | 366 kts | 266° |
| 2026-04-23 19:11 | 41.87611 | 39.65897 | 34204 ft | 366 kts | 266° |
| 2026-04-23 19:11 | 41.87727 | 39.59103 | 34203 ft | 366 kts | 266° |
| 2026-04-23 19:12 | 41.87823 | 39.53425 | 34192 ft | 366 kts | 266° |
| 2026-04-23 19:12 | 41.87931 | 39.46558 | 34200 ft | 368 kts | 266° |
| 2026-04-23 19:13 | 41.87993 | 39.39694 | 34202 ft | 367 kts | 265° |
| 2026-04-23 19:13 | 41.87992 | 39.32880 | 34201 ft | 367 kts | 265° |
| 2026-04-23 19:14 | 41.88001 | 39.26142 | 34197 ft | 355 kts | 265° |
| 2026-04-23 19:14 | 41.88047 | 39.19576 | 34203 ft | 353 kts | 266° |
| 2026-04-23 19:15 | 41.88262 | 39.12966 | 34202 ft | 354 kts | 267° |
| 2026-04-23 19:15 | 41.88492 | 39.06358 | 34204 ft | 354 kts | 267° |
| 2026-04-23 19:16 | 41.88721 | 38.99760 | 34204 ft | 354 kts | 267° |
| 2026-04-23 19:16 | 41.88941 | 38.93195 | 34198 ft | 354 kts | 267° |
| 2026-04-23 19:17 | 41.89279 | 38.83271 | 34200 ft | 355 kts | 267° |
| 2026-04-23 19:17 | 41.89518 | 38.76649 | 34197 ft | 355 kts | 267° |
| 2026-04-23 19:18 | 41.89758 | 38.70026 | 34197 ft | 355 kts | 267° |
| 2026-04-23 19:18 | 41.89998 | 38.63402 | 34194 ft | 355 kts | 267° |
| 2026-04-23 19:19 | 41.90359 | 38.53464 | 34194 ft | 355 kts | 267° |
| 2026-04-23 19:20 | 41.90707 | 38.43513 | 34195 ft | 356 kts | 267° |
| 2026-04-23 19:20 | 41.90917 | 38.36883 | 34201 ft | 356 kts | 267° |
| 2026-04-23 19:21 | 41.91230 | 38.26970 | 34198 ft | 356 kts | 267° |
| 2026-04-23 19:22 | 41.91440 | 38.20331 | 34199 ft | 356 kts | 267° |
| 2026-04-23 19:22 | 41.91750 | 38.10379 | 34197 ft | 356 kts | 267° |
| 2026-04-23 19:23 | 41.91947 | 38.03738 | 34205 ft | 355 kts | 267° |
| 2026-04-23 19:24 | 41.92176 | 37.93829 | 34195 ft | 355 kts | 266° |
| 2026-04-23 19:24 | 41.92404 | 37.83875 | 34195 ft | 355 kts | 266° |
| 2026-04-23 19:25 | 41.92695 | 37.70604 | 34195 ft | 356 kts | 266° |
| 2026-04-23 19:26 | 41.92894 | 37.60637 | 34196 ft | 356 kts | 267° |
| 2026-04-23 19:27 | 41.93142 | 37.43733 | 34191 ft | 365 kts | 266° |
| 2026-04-23 19:28 | 41.93346 | 37.30325 | 34189 ft | 357 kts | 266° |
| 2026-04-23 19:29 | 41.93497 | 37.20360 | 34198 ft | 358 kts | 267° |
| 2026-04-23 19:30 | 41.93555 | 37.10215 | 34189 ft | 364 kts | 266° |
| 2026-04-23 19:31 | 41.93600 | 37.00005 | 34192 ft | 364 kts | 266° |
| 2026-04-23 19:31 | 41.93628 | 36.93212 | 34192 ft | 364 kts | 266° |
| 2026-04-23 19:32 | 41.93655 | 36.86415 | 34191 ft | 364 kts | 266° |
| 2026-04-23 19:32 | 41.93680 | 36.79611 | 34192 ft | 364 kts | 266° |
| 2026-04-23 19:33 | 41.93672 | 36.72779 | 34191 ft | 368 kts | 266° |
| 2026-04-23 19:33 | 41.93626 | 36.62473 | 34118 ft | 370 kts | 266° |
| 2026-04-23 19:34 | 41.93610 | 36.59019 | 33995 ft | 368 kts | 266° |
| 2026-04-23 19:34 | 41.93594 | 36.55591 | 33990 ft | 366 kts | 266° |
| 2026-04-23 19:35 | 41.93752 | 36.45346 | 33989 ft | 368 kts | 274° |
| 2026-04-23 19:35 | 41.94677 | 36.38559 | 33991 ft | 370 kts | 277° |
| 2026-04-23 19:36 | 41.95683 | 36.31771 | 33991 ft | 370 kts | 277° |
| 2026-04-23 19:36 | 41.96690 | 36.24982 | 33991 ft | 370 kts | 277° |
| 2026-04-23 19:37 | 41.97697 | 36.18188 | 33986 ft | 370 kts | 277° |
| 2026-04-23 19:37 | 41.98704 | 36.11391 | 33988 ft | 370 kts | 277° |
| 2026-04-23 19:38 | 41.99710 | 36.04595 | 33989 ft | 370 kts | 277° |
| 2026-04-23 19:38 | 42.00648 | 35.97798 | 33992 ft | 372 kts | 273° |
| 2026-04-23 19:39 | 42.00694 | 35.90830 | 33987 ft | 372 kts | 265° |
| 2026-04-23 19:39 | 42.00398 | 35.83918 | 33972 ft | 372 kts | 265° |
| 2026-04-23 19:40 | 42.00087 | 35.76956 | 33984 ft | 371 kts | 264° |
| 2026-04-23 19:40 | 41.99780 | 35.70075 | 33986 ft | 371 kts | 264° |
| 2026-04-23 19:41 | 41.99469 | 35.63130 | 33985 ft | 371 kts | 265° |
| 2026-04-23 19:41 | 41.99146 | 35.56231 | 33986 ft | 373 kts | 265° |
| 2026-04-23 19:42 | 41.98783 | 35.49197 | 33983 ft | 379 kts | 264° |
| 2026-04-23 19:42 | 41.98416 | 35.42139 | 33982 ft | 378 kts | 264° |
| 2026-04-23 19:43 | 41.98051 | 35.35111 | 33983 ft | 378 kts | 264° |
| 2026-04-23 19:43 | 41.97680 | 35.28041 | 33981 ft | 378 kts | 264° |
| 2026-04-23 19:44 | 41.97309 | 35.20992 | 33982 ft | 378 kts | 264° |
| 2026-04-23 19:44 | 41.96939 | 35.13973 | 33994 ft | 378 kts | 265° |
| 2026-04-23 19:45 | 41.96516 | 35.06866 | 33990 ft | 383 kts | 264° |
| 2026-04-23 19:45 | 41.96077 | 34.99748 | 33987 ft | 384 kts | 264° |
| 2026-04-23 19:46 | 41.95632 | 34.92576 | 33983 ft | 384 kts | 264° |
| 2026-04-23 19:46 | 41.95183 | 34.85408 | 33988 ft | 384 kts | 264° |
| 2026-04-23 19:47 | 41.94812 | 34.79466 | 33982 ft | 384 kts | 264° |
| 2026-04-23 19:47 | 41.94290 | 34.71133 | 33987 ft | 384 kts | 264° |
| 2026-04-23 19:48 | 41.93926 | 34.63959 | 33989 ft | 387 kts | 269° |
| 2026-04-23 19:48 | 41.94035 | 34.56692 | 33987 ft | 389 kts | 271° |
| 2026-04-23 19:49 | 41.94251 | 34.49418 | 33989 ft | 390 kts | 271° |
| 2026-04-23 19:49 | 41.94464 | 34.42174 | 33989 ft | 390 kts | 271° |
| 2026-04-23 19:50 | 41.94680 | 34.34887 | 33991 ft | 390 kts | 271° |
| 2026-04-23 19:50 | 41.94895 | 34.27637 | 33993 ft | 390 kts | 272° |
| 2026-04-23 19:51 | 41.95072 | 34.20375 | 33988 ft | 391 kts | 271° |
| 2026-04-23 19:51 | 41.95230 | 34.13053 | 33995 ft | 393 kts | 271° |
| 2026-04-23 19:52 | 41.95359 | 34.06940 | 33994 ft | 393 kts | 271° |
| 2026-04-23 19:52 | 41.95534 | 33.98384 | 33991 ft | 393 kts | 271° |
| 2026-04-23 19:53 | 41.95684 | 33.91034 | 34000 ft | 393 kts | 271° |
| 2026-04-23 19:53 | 41.95827 | 33.83671 | 34002 ft | 394 kts | 271° |
| 2026-04-23 19:54 | 41.95691 | 33.76338 | 33996 ft | 396 kts | 263° |
| 2026-04-23 19:54 | 41.94885 | 33.68998 | 34007 ft | 396 kts | 263° |
| 2026-04-23 19:55 | 41.94170 | 33.61638 | 33980 ft | 397 kts | 263° |
| 2026-04-23 19:55 | 41.93469 | 33.54314 | 34000 ft | 397 kts | 263° |
| 2026-04-23 19:56 | 41.92763 | 33.46956 | 34007 ft | 397 kts | 263° |
| 2026-04-23 19:56 | 41.92054 | 33.39642 | 34000 ft | 397 kts | 263° |
| 2026-04-23 19:57 | 41.91299 | 33.32245 | 34022 ft | 400 kts | 263° |
| 2026-04-23 19:57 | 41.90665 | 33.26072 | 34022 ft | 400 kts | 263° |
| 2026-04-23 19:58 | 41.89778 | 33.17439 | 34004 ft | 400 kts | 263° |
| 2026-04-23 19:58 | 41.89025 | 33.10068 | 34011 ft | 400 kts | 263° |
| 2026-04-23 19:59 | 41.88403 | 33.03875 | 34007 ft | 401 kts | 263° |
| 2026-04-23 19:59 | 41.88398 | 32.98952 | 34003 ft | 398 kts | 283° |
| 2026-04-23 19:59 | 41.88908 | 32.96785 | 34004 ft | 397 kts | 294° |
| 2026-04-23 20:00 | 41.91256 | 32.91392 | 34011 ft | 400 kts | 302° |
| 2026-04-23 20:01 | 41.94341 | 32.85104 | 31890 ft | 422 kts | 302° |
| 2026-04-23 20:01 | 41.96063 | 32.81597 | 30478 ft | 449 kts | 302° |
| 2026-04-23 20:01 | 41.97748 | 32.78168 | 30616 ft | 430 kts | 302° |
| 2026-04-23 20:01 | 41.99352 | 32.74909 | 30678 ft | 414 kts | 302° |
| 2026-04-23 20:02 | 42.00910 | 32.71748 | 30645 ft | 400 kts | 302° |
| 2026-04-23 20:02 | 42.02429 | 32.68665 | 30533 ft | 388 kts | 303° |
| 2026-04-23 20:02 | 42.03887 | 32.65705 | 30376 ft | 379 kts | 303° |
| 2026-04-23 20:02 | 42.05337 | 32.62762 | 30194 ft | 374 kts | 303° |
| 2026-04-23 20:03 | 42.06774 | 32.59845 | 30018 ft | 373 kts | 303° |
| 2026-04-23 20:03 | 42.08211 | 32.56925 | 29808 ft | 372 kts | 303° |
| 2026-04-23 20:03 | 42.09607 | 32.54087 | 30165 ft | 352 kts | 303° |
| 2026-04-23 20:03 | 42.10834 | 32.51617 | 32165 ft | 289 kts | 303° |
| 2026-04-23 20:04 | 42.11933 | 32.49427 | 32631 ft | 286 kts | 303° |
| 2026-04-23 20:04 | 42.13091 | 32.47133 | 32079 ft | 304 kts | 303° |
| 2026-04-23 20:04 | 42.14273 | 32.44817 | 32189 ft | 297 kts | 304° |
| 2026-04-23 20:04 | 42.15429 | 32.42573 | 32556 ft | 287 kts | 304° |
| 2026-04-23 20:05 | 42.16561 | 32.40396 | 32776 ft | 278 kts | 304° |
| 2026-04-23 20:05 | 42.17666 | 32.38298 | 32902 ft | 273 kts | 304° |
| 2026-04-23 20:05 | 42.18800 | 32.36159 | 32448 ft | 287 kts | 304° |
| 2026-04-23 20:05 | 42.19963 | 32.33977 | 32335 ft | 288 kts | 304° |
| 2026-04-23 20:06 | 42.21111 | 32.31825 | 32627 ft | 274 kts | 304° |
| 2026-04-23 20:06 | 42.22198 | 32.29789 | 32895 ft | 263 kts | 304° |
| 2026-04-23 20:06 | 42.23252 | 32.27805 | 32764 ft | 265 kts | 304° |
| 2026-04-23 20:06 | 42.24347 | 32.25722 | 32325 ft | 278 kts | 304° |
| 2026-04-23 20:07 | 42.25473 | 32.23540 | 32065 ft | 284 kts | 303° |
| 2026-04-23 20:07 | 42.26563 | 32.21377 | 32199 ft | 277 kts | 303° |
| 2026-04-23 20:07 | 42.27603 | 32.19252 | 32455 ft | 266 kts | 302° |
| 2026-04-23 20:07 | 42.28621 | 32.17096 | 32114 ft | 279 kts | 302° |
| 2026-04-23 20:08 | 42.29655 | 32.14813 | 31802 ft | 287 kts | 301° |
| 2026-04-23 20:08 | 42.30592 | 32.12500 | 31894 ft | 284 kts | 295° |
| 2026-04-23 20:08 | 42.31337 | 32.10029 | 31915 ft | 283 kts | 290° |
| 2026-04-23 20:08 | 42.32008 | 32.07413 | 31222 ft | 309 kts | 289° |
| 2026-04-23 20:09 | 42.32590 | 32.04598 | 31278 ft | 307 kts | 284° |
| 2026-04-23 20:09 | 42.33433 | 31.98964 | 31621 ft | 301 kts | 281° |
| 2026-04-23 20:09 | 42.33742 | 31.96222 | 32045 ft | 287 kts | 279° |
| 2026-04-23 20:10 | 42.33948 | 31.93627 | 32544 ft | 268 kts | 276° |
| 2026-04-23 20:10 | 42.34070 | 31.91132 | 32615 ft | 265 kts | 275° |
| 2026-04-23 20:10 | 42.34126 | 31.88599 | 32265 ft | 276 kts | 273° |
| 2026-04-23 20:10 | 42.34105 | 31.85949 | 31902 ft | 287 kts | 271° |
| 2026-04-23 20:11 | 42.34007 | 31.83277 | 31858 ft | 287 kts | 269° |
| 2026-04-23 20:11 | 42.33826 | 31.80635 | 32095 ft | 276 kts | 266° |
| 2026-04-23 20:11 | 42.33648 | 31.78043 | 31888 ft | 285 kts | 269° |
| 2026-04-23 20:11 | 42.33537 | 31.75253 | 31314 ft | 305 kts | 270° |
| 2026-04-23 20:12 | 42.33443 | 31.72341 | 30869 ft | 323 kts | 271° |
| 2026-04-23 20:12 | 42.33385 | 31.69227 | 30505 ft | 339 kts | 275° |
| 2026-04-23 20:12 | 42.33586 | 31.66043 | 30537 ft | 339 kts | 282° |
| 2026-04-23 20:12 | 42.34113 | 31.62963 | 30834 ft | 332 kts | 289° |
| 2026-04-23 20:13 | 42.34812 | 31.60011 | 31165 ft | 326 kts | 291° |
| 2026-04-23 20:13 | 42.36507 | 31.54317 | 31247 ft | 332 kts | 296° |
| 2026-04-23 20:14 | 42.38497 | 31.48513 | 31136 ft | 345 kts | 297° |
| 2026-04-23 20:14 | 42.40496 | 31.42526 | 31096 ft | 358 kts | 292° |
| 2026-04-23 20:15 | 42.41907 | 31.35918 | 31100 ft | 371 kts | 286° |
| 2026-04-23 20:15 | 42.43061 | 31.29002 | 31141 ft | 382 kts | 284° |
| 2026-04-23 20:16 | 42.44060 | 31.21856 | 31203 ft | 393 kts | 282° |
| 2026-04-23 20:16 | 42.45021 | 31.14461 | 31265 ft | 403 kts | 284° |
| 2026-04-23 20:17 | 42.46259 | 31.07021 | 31353 ft | 411 kts | 287° |
| 2026-04-23 20:17 | 42.47826 | 30.99481 | 31453 ft | 420 kts | 289° |
| 2026-04-23 20:18 | 42.49540 | 30.91812 | 31560 ft | 429 kts | 289° |
| 2026-04-23 20:18 | 42.51183 | 30.83981 | 31668 ft | 439 kts | 287° |
| 2026-04-23 20:19 | 42.52607 | 30.75827 | 31762 ft | 449 kts | 284° |
| 2026-04-23 20:19 | 42.53743 | 30.67444 | 31860 ft | 458 kts | 281° |
| 2026-04-23 20:20 | 42.54670 | 30.58820 | 31950 ft | 467 kts | 280° |
| 2026-04-23 20:20 | 42.55084 | 30.54505 | 32721 ft | 453 kts | 279° |
| 2026-04-23 20:20 | 42.55447 | 30.50315 | 33564 ft | 439 kts | 278° |
| 2026-04-23 20:20 | 42.55811 | 30.46274 | 34301 ft | 424 kts | 283° |
| 2026-04-23 20:21 | 42.56542 | 30.42528 | 34913 ft | 407 kts | 292° |
| 2026-04-23 20:21 | 42.57546 | 30.39017 | 35518 ft | 393 kts | 293° |
| 2026-04-23 20:21 | 42.58549 | 30.35626 | 36064 ft | 380 kts | 294° |
| 2026-04-23 20:21 | 42.59543 | 30.32366 | 36558 ft | 366 kts | 295° |
| 2026-04-23 20:22 | 42.60530 | 30.29236 | 36997 ft | 354 kts | 295° |
| 2026-04-23 20:22 | 42.61506 | 30.26261 | 37341 ft | 341 kts | 296° |
| 2026-04-23 20:22 | 42.62533 | 30.23407 | 37490 ft | 334 kts | 306° |
| 2026-04-23 20:22 | 42.64057 | 30.20994 | 37013 ft | 342 kts | 318° |
| 2026-04-23 20:23 | 42.65861 | 30.18808 | 36568 ft | 352 kts | 318° |
| 2026-04-23 20:23 | 42.67605 | 30.16447 | 36459 ft | 353 kts | 314° |
| 2026-04-23 20:23 | 42.69262 | 30.13990 | 36403 ft | 355 kts | 313° |
| 2026-04-23 20:23 | 42.70948 | 30.11502 | 36203 ft | 360 kts | 314° |
| 2026-04-23 20:24 | 42.72653 | 30.09017 | 36032 ft | 365 kts | 314° |
| 2026-04-23 20:24 | 42.74417 | 30.06479 | 35879 ft | 370 kts | 315° |
| 2026-04-23 20:24 | 42.76223 | 30.03917 | 35735 ft | 375 kts | 315° |
| 2026-04-23 20:24 | 42.78030 | 30.01363 | 35539 ft | 383 kts | 315° |
| 2026-04-23 20:25 | 42.79907 | 29.98712 | 35288 ft | 391 kts | 316° |
| 2026-04-23 20:25 | 42.81843 | 29.96049 | 35167 ft | 397 kts | 316° |
| 2026-04-23 20:25 | 42.83787 | 29.93337 | 35111 ft | 401 kts | 316° |
| 2026-04-23 20:26 | 42.87664 | 29.87789 | 34952 ft | 412 kts | 315° |
| 2026-04-23 20:26 | 42.89643 | 29.84924 | 34822 ft | 419 kts | 315° |
| 2026-04-23 20:26 | 42.91662 | 29.81986 | 34681 ft | 426 kts | 315° |
| 2026-04-23 20:26 | 42.93702 | 29.79000 | 34565 ft | 433 kts | 315° |
| 2026-04-23 20:27 | 42.95741 | 29.76000 | 34434 ft | 439 kts | 315° |
| 2026-04-23 20:27 | 42.99933 | 29.69776 | 34364 ft | 449 kts | 314° |
| 2026-04-23 20:28 | 43.04139 | 29.63451 | 34774 ft | 445 kts | 314° |
| 2026-04-23 20:28 | 43.06173 | 29.60353 | 35032 ft | 428 kts | 314° |
| 2026-04-23 20:28 | 43.08087 | 29.57403 | 35213 ft | 411 kts | 313° |
| 2026-04-23 20:28 | 43.09966 | 29.54472 | 34905 ft | 406 kts | 313° |
| 2026-04-23 20:29 | 43.11842 | 29.51513 | 34152 ft | 414 kts | 313° |
| 2026-04-23 20:29 | 43.13689 | 29.48563 | 33891 ft | 407 kts | 313° |
| 2026-04-23 20:29 | 43.15483 | 29.45654 | 33943 ft | 392 kts | 312° |
| 2026-04-23 20:29 | 43.17203 | 29.42816 | 33918 ft | 380 kts | 312° |
| 2026-04-23 20:30 | 43.18847 | 29.40054 | 33871 ft | 368 kts | 311° |
| 2026-04-23 20:30 | 43.21936 | 29.34701 | 33640 ft | 346 kts | 311° |
| 2026-04-23 20:30 | 43.23364 | 29.32135 | 33573 ft | 338 kts | 310° |
| 2026-04-23 20:31 | 43.24756 | 29.29548 | 33725 ft | 333 kts | 309° |
| 2026-04-23 20:31 | 43.26101 | 29.26987 | 33941 ft | 329 kts | 309° |
| 2026-04-23 20:31 | 43.28836 | 29.22001 | 34027 ft | 328 kts | 312° |
| 2026-04-23 20:32 | 43.31831 | 29.17254 | 34079 ft | 328 kts | 316° |
| 2026-04-23 20:32 | 43.35077 | 29.12893 | 34127 ft | 327 kts | 321° |
| 2026-04-23 20:33 | 43.38370 | 29.08561 | 34157 ft | 331 kts | 313° |
| 2026-04-23 20:33 | 43.41466 | 29.03824 | 34126 ft | 334 kts | 316° |
| 2026-04-23 20:34 | 43.44668 | 28.99119 | 34054 ft | 340 kts | 318° |
| 2026-04-23 20:34 | 43.46407 | 28.96865 | 33942 ft | 345 kts | 321° |
| 2026-04-23 20:34 | 43.48197 | 28.94662 | 33747 ft | 354 kts | 319° |
| 2026-04-23 20:35 | 43.49969 | 28.92203 | 33502 ft | 365 kts | 315° |
| 2026-04-23 20:35 | 43.51653 | 28.89566 | 33586 ft | 366 kts | 313° |
| 2026-04-23 20:35 | 43.54856 | 28.84103 | 33757 ft | 370 kts | 311° |
| 2026-04-23 20:36 | 43.57995 | 28.78386 | 33869 ft | 375 kts | 309° |
| 2026-04-23 20:36 | 43.61003 | 28.72483 | 33959 ft | 381 kts | 307° |
| 2026-04-23 20:37 | 43.63910 | 28.66286 | 34049 ft | 386 kts | 306° |
| 2026-04-23 20:37 | 43.66865 | 28.60078 | 34187 ft | 389 kts | 307° |
| 2026-04-23 20:38 | 43.68367 | 28.56972 | 34418 ft | 385 kts | 307° |
| 2026-04-23 20:38 | 43.69848 | 28.53921 | 34797 ft | 377 kts | 307° |
| 2026-04-23 20:38 | 43.71286 | 28.50967 | 35312 ft | 363 kts | 307° |
| 2026-04-23 20:38 | 43.72692 | 28.48088 | 35501 ft | 362 kts | 307° |
| 2026-04-23 20:39 | 43.75555 | 28.42301 | 35351 ft | 370 kts | 308° |
| 2026-04-23 20:39 | 43.78535 | 28.36393 | 35245 ft | 377 kts | 308° |
| 2026-04-23 20:40 | 43.81609 | 28.30420 | 35171 ft | 384 kts | 309° |
| 2026-04-23 20:40 | 43.84769 | 28.24413 | 35091 ft | 391 kts | 309° |
| 2026-04-23 20:41 | 43.88064 | 28.18301 | 35052 ft | 398 kts | 310° |
| 2026-04-23 20:41 | 43.91477 | 28.12130 | 35014 ft | 405 kts | 311° |
| 2026-04-23 20:42 | 43.94981 | 28.05963 | 34990 ft | 412 kts | 311° |
| 2026-04-23 20:42 | 43.98640 | 27.99707 | 34961 ft | 420 kts | 312° |
| 2026-04-23 20:43 | 44.02402 | 27.93466 | 34958 ft | 427 kts | 313° |
| 2026-04-23 20:43 | 44.06325 | 27.87160 | 34950 ft | 434 kts | 314° |
| 2026-04-23 20:44 | 44.10368 | 27.80869 | 34961 ft | 441 kts | 315° |
| 2026-04-23 20:44 | 44.12408 | 27.77764 | 35553 ft | 428 kts | 315° |
| 2026-04-23 20:44 | 44.14404 | 27.74758 | 36131 ft | 416 kts | 315° |
| 2026-04-23 20:45 | 44.16357 | 27.71849 | 36691 ft | 404 kts | 315° |
| 2026-04-23 20:45 | 44.18246 | 27.69071 | 37218 ft | 393 kts | 316° |
| 2026-04-23 20:45 | 44.20115 | 27.66361 | 37704 ft | 382 kts | 316° |
| 2026-04-23 20:45 | 44.21949 | 27.63741 | 38149 ft | 371 kts | 316° |
| 2026-04-23 20:46 | 44.23745 | 27.61218 | 38505 ft | 361 kts | 316° |
| 2026-04-23 20:46 | 44.25513 | 27.58777 | 38614 ft | 356 kts | 317° |
| 2026-04-23 20:46 | 44.29056 | 27.53986 | 38380 ft | 359 kts | 317° |
| 2026-04-23 20:47 | 44.30876 | 27.51560 | 38085 ft | 364 kts | 318° |
| 2026-04-23 20:47 | 44.32119 | 27.49907 | 37935 ft | 367 kts | 318° |
| 2026-04-23 20:47 | 44.33955 | 27.47459 | 37790 ft | 369 kts | 318° |
| 2026-04-23 20:47 | 44.35808 | 27.44975 | 37789 ft | 368 kts | 317° |
| 2026-04-23 20:48 | 44.37637 | 27.42495 | 37933 ft | 363 kts | 317° |
| 2026-04-23 20:48 | 44.39422 | 27.40039 | 38153 ft | 356 kts | 317° |
| 2026-04-23 20:48 | 44.41161 | 27.37606 | 38355 ft | 349 kts | 316° |
| 2026-04-23 20:48 | 44.42852 | 27.35194 | 38404 ft | 345 kts | 315° |
| 2026-04-23 20:49 | 44.44500 | 27.32790 | 38263 ft | 346 kts | 315° |
| 2026-04-23 20:49 | 44.46159 | 27.30305 | 38006 ft | 351 kts | 314° |
| 2026-04-23 20:49 | 44.47808 | 27.27755 | 37765 ft | 356 kts | 313° |
| 2026-04-23 20:49 | 44.49449 | 27.25125 | 37628 ft | 357 kts | 313° |
| 2026-04-23 20:50 | 44.52556 | 27.19812 | 37801 ft | 348 kts | 310° |
| 2026-04-23 20:50 | 44.54009 | 27.17131 | 37961 ft | 342 kts | 308° |
| 2026-04-23 20:50 | 44.55386 | 27.14443 | 37990 ft | 338 kts | 307° |
| 2026-04-23 20:51 | 44.56708 | 27.11692 | 37856 ft | 340 kts | 306° |
| 2026-04-23 20:51 | 44.57964 | 27.08896 | 37614 ft | 344 kts | 304° |
| 2026-04-23 20:51 | 44.59178 | 27.05983 | 37391 ft | 348 kts | 302° |
| 2026-04-23 20:51 | 44.60331 | 27.02975 | 37314 ft | 349 kts | 300° |
| 2026-04-23 20:52 | 44.62362 | 26.96908 | 37527 ft | 338 kts | 296° |
| 2026-04-23 20:52 | 44.64105 | 26.90864 | 37517 ft | 333 kts | 295° |
| 2026-04-23 20:53 | 44.64937 | 26.87796 | 37303 ft | 337 kts | 294° |
| 2026-04-23 20:53 | 44.65767 | 26.84691 | 37082 ft | 340 kts | 295° |